Time;durP1;ratioP1;P1;durP2;ratioP2;P2;SDS_P1;SDS_P2;PMS_P1;PMS_P2;Temp;Humidity;BMP_temperature;BMP_pressure;BME280_temperature;BME280_humidity;BME280_pressure;Samples;Min_cycle;Max_cycle;Signal;HPM_P1;HPM_P2
2023/06/28 00:00:40;;;;;;;18.10;3.80;;;;;;;-144.73;100.00;54374.84;4991819;28;20049;-70
2023/06/28 00:03:10;;;;;;;12.73;2.38;;;;;;;-144.73;100.00;54387.19;5010573;28;20022;-71
2023/06/28 00:05:35;;;;;;;9.68;2.55;;;;;;;-144.73;100.00;54424.13;5006701;28;20035;-71
2023/06/28 00:08:01;;;;;;;10.43;2.72;;;;;;;-144.73;100.00;54422.06;4993808;28;20394;-70
2023/06/28 00:10:26;;;;;;;13.00;3.20;;;;;;;-144.73;100.00;54383.06;4994116;28;20038;-70
2023/06/28 00:12:51;;;;;;;11.52;2.65;;;;;;;-144.73;100.00;54448.75;4988027;28;20110;-70
2023/06/28 00:15:16;;;;;;;14.65;3.38;;;;;;;-144.73;100.00;54452.84;5004575;28;20064;-70
2023/06/28 00:17:42;;;;;;;15.55;3.03;;;;;;;-144.73;100.00;54420.00;5010234;28;20030;-70
2023/06/28 00:20:08;;;;;;;16.42;3.15;;;;;;;-144.73;100.00;54381.00;5010842;28;20111;-71
2023/06/28 00:22:39;;;;;;;10.07;2.60;;;;;;;-144.73;100.00;54407.69;4993708;28;20478;-71
2023/06/28 00:25:05;;;;;;;;;;;;;;;-144.73;100.00;54440.53;4987933;28;20038;-71
2023/06/28 00:27:31;;;;;;;11.82;2.50;;;;;;;-144.73;100.00;54391.28;5011511;28;19919;-72
2023/06/28 00:29:57;;;;;;;10.90;2.33;;;;;;;-144.73;100.00;54420.00;5010702;28;20124;-71
2023/06/28 00:32:24;;;;;;;19.88;3.17;;;;;;;-144.73;100.00;54420.00;4990274;28;20018;-71
2023/06/28 00:34:49;;;;;;;15.85;2.65;;;;;;;-144.73;100.00;54420.00;5008515;28;20461;-72
2023/06/28 00:37:14;;;;;;;19.98;3.08;;;;;;;-144.73;100.00;54383.06;4979873;28;20026;-71
2023/06/28 00:39:40;;;;;;;15.85;2.97;;;;;;;-144.73;100.00;54399.50;5007805;28;20033;-71
2023/06/28 00:42:05;;;;;;;9.63;2.35;;;;;;;-144.73;100.00;54420.00;5004337;28;20029;-71
2023/06/28 00:44:31;;;;;;;16.63;3.10;;;;;;;-144.73;100.00;54407.69;4988562;28;20113;-71
2023/06/28 00:46:57;;;;;;;12.70;2.63;;;;;;;-144.73;100.00;54411.81;5003593;28;20103;-71
2023/06/28 00:49:26;;;;;;;8.60;2.42;;;;;;;-144.73;100.00;54428.22;5008895;28;20033;-71
2023/06/28 00:51:52;;;;;;;21.10;2.92;;;;;;;-144.73;100.00;54381.00;5003331;28;20026;-71
2023/06/28 00:54:18;;;;;;;13.90;3.08;;;;;;;-144.73;100.00;54391.28;4993179;28;20026;-71
2023/06/28 00:56:45;;;;;;;21.05;3.28;;;;;;;-144.73;100.00;54436.44;4993208;28;20018;-70
2023/06/28 00:59:11;;;;;;;10.15;2.42;;;;;;;-144.73;100.00;54428.22;4992645;28;20113;-70
2023/06/28 01:01:36;;;;;;;10.57;2.38;;;;;;;-144.73;100.00;54407.69;4990806;28;20113;-70
2023/06/28 01:04:05;;;;;;;12.45;2.67;;;;;;;-144.73;100.00;54358.44;4986809;28;20022;-71
2023/06/28 01:06:35;;;;;;;15.40;2.78;;;;;;;-144.73;100.00;54415.91;4993113;28;20046;-71
2023/06/28 01:09:01;;;;;;;16.10;3.53;;;;;;;-144.73;100.00;54393.34;4992773;28;20042;-70
2023/06/28 01:11:27;;;;;;;11.77;2.13;;;;;;;-144.73;100.00;54407.69;5008902;28;20122;-71
2023/06/28 01:13:52;;;;;;;13.85;3.33;;;;;;;-144.73;100.00;54440.53;5010450;28;20112;-71
2023/06/28 01:16:17;;;;;;;17.15;3.17;;;;;;;-144.73;100.00;54440.53;5008664;28;20108;-71
2023/06/28 01:18:43;;;;;;;8.60;2.72;;;;;;;-144.73;100.00;54407.69;5004595;28;20049;-71
2023/06/28 01:21:09;;;;;;;15.77;3.90;;;;;;;-144.73;100.00;54407.69;4989899;28;20026;-71
2023/06/28 01:23:35;;;;;;;15.52;3.40;;;;;;;-144.73;100.00;54395.38;4987992;28;20057;-71
2023/06/28 01:26:02;;;;;;;11.77;2.55;;;;;;;-144.73;100.00;54407.69;5009733;28;20030;-71
2023/06/28 01:28:29;;;;;;;20.25;3.38;;;;;;;-144.73;100.00;54397.44;4992681;28;20413;-71
2023/06/28 01:30:55;;;;;;;16.33;2.72;;;;;;;-144.73;100.00;54378.97;4983372;28;20026;-71
2023/06/28 01:33:20;;;;;;;10.65;2.83;;;;;;;-144.73;100.00;54407.69;4985382;28;20379;-71
2023/06/28 01:35:45;;;;;;;13.15;2.85;;;;;;;-144.73;100.00;54432.31;5003134;28;20022;-71
2023/06/28 01:38:12;;;;;;;20.65;3.13;;;;;;;-144.73;100.00;54411.81;4992791;28;20091;-71
2023/06/28 01:40:39;;;;;;;10.00;2.88;;;;;;;-144.73;100.00;54424.13;4987021;28;20023;-71
2023/06/28 01:43:06;;;;;;;8.82;2.40;;;;;;;-144.73;100.00;54395.38;4991028;28;20022;-71
2023/06/28 01:45:35;;;;;;;13.55;2.85;;;;;;;-144.73;100.00;54428.22;4985242;28;20029;-71
2023/06/28 01:48:02;;;;;;;11.30;2.58;;;;;;;-144.73;100.00;54428.22;4992419;28;20029;-71
2023/06/28 01:50:28;;;;;;;17.63;3.72;;;;;;;-144.73;100.00;54395.38;5003262;28;20030;-71
2023/06/28 01:52:59;;;;;;;14.90;3.38;;;;;;;-144.73;100.00;54444.66;4998453;28;20483;-71
2023/06/28 01:55:24;;;;;;;13.57;3.10;;;;;;;-144.73;100.00;54413.84;4998758;28;20089;-70
2023/06/28 01:57:50;;;;;;;21.48;3.00;;;;;;;-144.73;100.00;54407.69;4999696;28;20564;-70
2023/06/28 02:00:16;;;;;;;17.60;3.10;;;;;;;-144.73;100.00;54411.81;5002186;28;20037;-71
2023/06/28 02:02:42;;;;;;;15.23;3.15;;;;;;;-144.73;100.00;54387.19;5009970;28;20010;-71
2023/06/28 02:05:07;;;;;;;18.25;3.85;;;;;;;-144.73;100.00;54426.16;4990843;28;20564;-71
2023/06/28 02:07:32;;;;;;;9.98;2.95;;;;;;;-144.73;100.00;54428.22;4985016;28;20132;-71
2023/06/28 02:09:58;;;;;;;14.15;2.95;;;;;;;-144.73;100.00;54461.06;4992681;28;20085;-71
2023/06/28 02:12:23;;;;;;;13.32;2.72;;;;;;;-144.73;100.00;54391.28;4987759;28;20022;-71
2023/06/28 02:14:51;;;;;;;14.13;2.50;;;;;;;-144.73;100.00;54434.38;4981238;28;20030;-71
2023/06/28 02:17:20;;;;;;;23.05;3.70;;;;;;;-144.73;100.00;54407.69;4989280;28;20029;-71
2023/06/28 02:19:49;;;;;;;18.58;3.28;;;;;;;-144.73;100.00;54426.16;4991931;28;20029;-71
2023/06/28 02:22:16;;;;;;;11.00;3.30;;;;;;;-144.73;100.00;54389.22;4990222;28;20545;-71
2023/06/28 02:24:41;;;;;;;20.38;3.60;;;;;;;-144.73;100.00;54436.44;4986320;28;20093;-71
2023/06/28 02:27:09;;;;;;;14.23;3.92;;;;;;;-144.73;100.00;54407.69;4991033;28;20112;-71
2023/06/28 02:29:35;;;;;;;16.67;3.83;;;;;;;-144.73;100.00;54420.00;5000033;28;20479;-71
2023/06/28 02:32:00;;;;;;;21.63;4.07;;;;;;;-144.73;100.00;54411.81;4981997;28;20046;-71
2023/06/28 02:34:26;;;;;;;27.65;4.22;;;;;;;-144.73;100.00;54428.22;4984595;28;20049;-71
2023/06/28 02:37:11;;;;;;;13.35;3.65;;;;;;;-144.73;100.00;54407.69;5008635;28;20121;-71
2023/06/28 02:39:36;;;;;;;9.23;2.95;;;;;;;-144.73;100.00;54420.00;4988707;28;20050;-71
2023/06/28 02:42:02;;;;;;;15.63;3.08;;;;;;;-144.73;100.00;54432.31;4992333;28;20085;-71
2023/06/28 02:44:27;;;;;;;15.30;3.33;;;;;;;-144.73;100.00;54424.13;4988450;28;20033;-71
2023/06/28 02:46:53;;;;;;;14.93;3.20;;;;;;;-144.73;100.00;54432.31;5009351;28;20022;-71
2023/06/28 02:49:18;;;;;;;24.23;4.53;;;;;;;-144.73;100.00;54452.84;4983605;28;20101;-71
2023/06/28 02:51:43;;;;;;;15.57;4.05;;;;;;;-144.73;100.00;54407.69;5009178;28;20022;-71
2023/06/28 02:54:09;;;;;;;16.77;3.97;;;;;;;-144.73;100.00;54436.44;4994340;28;20036;-71
2023/06/28 02:56:34;;;;;;;15.95;3.83;;;;;;;-144.73;100.00;54411.81;4999169;28;20030;-71
2023/06/28 02:58:59;;;;;;;22.83;4.53;;;;;;;-144.73;100.00;54434.38;5009985;28;20037;-71
2023/06/28 03:01:25;;;;;;;26.10;4.53;;;;;;;-144.73;100.00;54432.31;5008041;28;20109;-71
2023/06/28 03:03:51;;;;;;;19.52;3.40;;;;;;;-144.73;100.00;54411.81;4991584;28;20386;-71
2023/06/28 03:06:16;;;;;;;24.30;3.90;;;;;;;-144.73;100.00;54428.22;4990233;28;20184;-71
2023/06/28 03:08:42;;;;;;;18.58;3.72;;;;;;;-144.73;100.00;54430.28;4998316;28;20417;-71
2023/06/28 03:11:08;;;;;;;23.60;4.20;;;;;;;-144.73;100.00;54424.13;4991984;28;20049;-71
2023/06/28 03:13:33;;;;;;;35.92;4.45;;;;;;;-144.73;100.00;54446.69;4992061;28;20038;-71
2023/06/28 03:15:59;;;;;;;16.42;3.28;;;;;;;-144.73;100.00;54420.00;4990603;28;20092;-71
2023/06/28 03:18:25;;;;;;;30.65;6.03;;;;;;;-144.73;100.00;54415.91;4995034;28;20022;-71
2023/06/28 03:20:50;;;;;;;20.70;4.07;;;;;;;-144.73;100.00;54397.44;5011935;28;20028;-71
2023/06/28 03:23:16;;;;;;;29.33;4.72;;;;;;;-144.73;100.00;54424.13;4994506;28;20065;-72
2023/06/28 03:25:41;;;;;;;24.50;4.75;;;;;;;-144.73;100.00;54409.75;4995003;28;20053;-71
2023/06/28 03:28:06;;;;;;;30.27;4.82;;;;;;;-144.73;100.00;54415.91;5013729;28;20080;-71
2023/06/28 03:30:32;;;;;;;16.55;4.45;;;;;;;-144.73;100.00;54407.69;4996860;28;20112;-72
2023/06/28 03:32:57;;;;;;;19.67;3.90;;;;;;;-144.73;100.00;54407.69;4987527;28;20509;-71
2023/06/28 03:35:22;;;;;;;16.30;3.85;;;;;;;-144.73;100.00;54407.69;5011110;28;20041;-71
2023/06/28 03:37:52;;;;;;;25.95;4.80;;;;;;;-144.73;100.00;54456.97;4994905;28;20526;-71
2023/06/28 03:40:18;;;;;;;23.35;4.28;;;;;;;-144.73;100.00;54440.53;5011040;28;20034;-71
2023/06/28 03:42:43;;;;;;;21.85;5.28;;;;;;;-144.73;100.00;54436.44;5012224;28;20360;-71
2023/06/28 03:45:09;;;;;;;19.33;5.57;;;;;;;-144.73;100.00;54407.69;4993840;28;20061;-71
2023/06/28 03:47:34;;;;;;;19.10;4.20;;;;;;;-144.73;100.00;54444.66;4994722;28;20030;-71
2023/06/28 03:49:59;;;;;;;18.65;5.00;;;;;;;-144.73;100.00;54440.53;5011845;28;20037;-71
2023/06/28 03:52:25;;;;;;;24.83;4.93;;;;;;;-144.73;100.00;54385.13;4993673;28;20018;-71
2023/06/28 03:54:50;;;;;;;27.15;5.65;;;;;;;-144.73;100.00;54407.69;4994039;28;20030;-71
2023/06/28 03:57:15;;;;;;;26.90;4.72;;;;;;;-144.73;100.00;54424.13;4994900;28;20081;-71
2023/06/28 03:59:41;;;;;;;17.90;4.13;;;;;;;-144.73;100.00;54432.31;4994501;28;20521;-71
2023/06/28 04:02:06;;;;;;;28.85;5.15;;;;;;;-144.73;100.00;54407.69;4994070;28;20438;-71
2023/06/28 04:04:33;;;;;;;25.98;5.20;;;;;;;-144.73;100.00;54446.69;5001693;28;20030;-71
2023/06/28 04:07:00;;;;;;;27.40;4.53;;;;;;;-144.73;100.00;54424.13;4995156;28;20104;-71
2023/06/28 04:09:25;;;;;;;23.10;4.95;;;;;;;-144.73;100.00;54391.28;4979639;28;20022;-71
2023/06/28 04:11:51;;;;;;;25.35;4.70;;;;;;;-144.73;100.00;54378.97;4992678;28;20037;-72
2023/06/28 04:14:16;;;;;;;14.38;4.47;;;;;;;-144.73;100.00;54378.97;4995420;28;20533;-71
2023/06/28 04:16:42;;;;;;;30.30;6.05;;;;;;;-144.73;100.00;54432.31;5011458;28;20045;-71
2023/06/28 04:19:07;;;;;;;28.10;4.80;;;;;;;-144.73;100.00;54415.91;4985869;28;20088;-71
2023/06/28 04:21:33;;;;;;;16.88;4.53;;;;;;;-144.73;100.00;54378.97;4993370;28;20034;-71
2023/06/28 04:23:58;;;;;;;15.48;4.10;;;;;;;-144.73;100.00;54428.22;4994261;28;20045;-71
2023/06/28 04:26:24;;;;;;;18.48;4.88;;;;;;;-144.73;100.00;54415.91;5009887;28;20034;-71
2023/06/28 04:28:50;;;;;;;33.53;5.65;;;;;;;-144.73;100.00;54407.69;4993758;28;20014;-71
2023/06/28 04:31:15;;;;;;;29.48;4.82;;;;;;;-144.73;100.00;54395.38;4993704;28;20064;-71
2023/06/28 04:33:40;;;;;;;27.85;4.30;;;;;;;-144.73;100.00;54438.50;5012238;28;20029;-71
2023/06/28 04:36:06;;;;;;;19.42;3.60;;;;;;;-144.73;100.00;54444.66;4990281;28;20062;-71
2023/06/28 04:38:32;;;;;;;16.63;3.85;;;;;;;-144.73;100.00;54387.19;4995150;28;20080;-71
2023/06/28 04:40:59;;;;;;;14.57;4.43;;;;;;;-144.73;100.00;54415.91;4993194;28;20054;-71
2023/06/28 04:43:24;;;;;;;16.65;3.88;;;;;;;-144.73;100.00;54456.97;5007663;28;20018;-71
2023/06/28 04:45:49;;;;;;;18.20;3.53;;;;;;;-144.73;100.00;54387.19;4993251;28;20037;-71
2023/06/28 04:48:15;;;;;;;22.65;4.47;;;;;;;-144.73;100.00;54452.84;4990035;28;20025;-71
2023/06/28 04:50:40;;;;;;;16.33;3.83;;;;;;;-144.73;100.00;54411.81;5010719;28;20026;-71
2023/06/28 04:53:06;;;;;;;22.50;4.38;;;;;;;-144.73;100.00;54461.06;5009430;28;20030;-71
2023/06/28 04:55:34;;;;;;;14.38;3.47;;;;;;;-144.73;100.00;54436.44;5010534;28;20117;-71
2023/06/28 04:58:04;;;;;;;25.58;4.35;;;;;;;-144.73;100.00;54440.53;5010627;28;20036;-71
2023/06/28 05:00:30;;;;;;;23.33;4.32;;;;;;;-144.73;100.00;54428.22;5008933;28;20025;-71
2023/06/28 05:02:56;;;;;;;15.65;3.53;;;;;;;-144.73;100.00;54420.00;4992035;28;20033;-71
2023/06/28 05:05:25;;;;;;;22.33;3.55;;;;;;;-144.73;100.00;54424.13;5007395;28;20058;-71
2023/06/28 05:07:54;;;;;;;21.98;3.97;;;;;;;-144.73;100.00;54428.22;4992591;28;20030;-71
2023/06/28 05:10:21;;;;;;;17.48;3.90;;;;;;;-144.73;100.00;54444.66;4992499;28;20430;-71
2023/06/28 05:12:50;;;;;;;29.83;3.70;;;;;;;-144.73;100.00;54407.69;4992896;28;20022;-71
2023/06/28 05:15:15;;;;;;;16.13;4.00;;;;;;;-144.73;100.00;54407.69;4983252;28;20042;-70
2023/06/28 05:17:41;;;;;;;15.77;3.28;;;;;;;-144.73;100.00;54428.22;5010620;28;20030;-71
2023/06/28 05:20:07;;;;;;;23.70;3.90;;;;;;;-144.73;100.00;54456.97;5007763;28;20030;-71
2023/06/28 05:22:33;;;;;;;22.30;3.30;;;;;;;-144.73;100.00;54411.81;5007685;28;20410;-71
2023/06/28 05:24:58;;;;;;;18.92;3.55;;;;;;;-144.73;100.00;54444.66;5008921;28;20042;-70
2023/06/28 05:27:23;;;;;;;17.60;3.83;;;;;;;-144.73;100.00;54411.81;5008295;28;20065;-71
2023/06/28 05:29:48;;;;;;;13.50;3.15;;;;;;;-144.73;100.00;54436.44;5010112;28;20066;-71
2023/06/28 05:32:14;;;;;;;26.65;4.20;;;;;;;-144.73;100.00;54415.91;4990631;28;20061;-73
2023/06/28 05:34:42;;;;;;;14.85;3.67;;;;;;;-144.73;100.00;54424.13;5009158;28;20398;-71
2023/06/28 05:37:07;;;;;;;17.65;3.30;;;;;;;-144.73;100.00;54424.13;4987120;28;20037;-71
2023/06/28 05:39:32;;;;;;;17.70;3.55;;;;;;;-144.73;100.00;54407.69;4992317;28;20109;-71
2023/06/28 05:41:58;;;;;;;15.70;3.60;;;;;;;-144.73;100.00;54415.91;5008336;28;20022;-71
2023/06/28 05:44:23;;;;;;;19.83;4.10;;;;;;;-144.73;100.00;54407.69;4991867;28;20077;-72
2023/06/28 05:46:49;;;;;;;20.02;3.85;;;;;;;-144.73;100.00;54395.38;5010406;28;20029;-70
2023/06/28 05:49:14;;;;;;;16.05;3.20;;;;;;;-144.73;100.00;54432.31;5007986;28;20075;-70
2023/06/28 05:51:40;;;;;;;19.85;3.03;;;;;;;-144.73;100.00;54448.75;5009319;28;20491;-70
2023/06/28 05:54:05;;;;;;;13.73;2.90;;;;;;;-144.73;100.00;54463.13;5000090;28;20033;-71
2023/06/28 05:56:31;;;;;;;22.20;3.22;;;;;;;-144.73;100.00;54407.69;5007268;28;20161;-72
2023/06/28 05:58:57;;;;;;;23.08;3.97;;;;;;;-144.73;100.00;54426.16;4986600;28;20076;-72
2023/06/28 06:01:23;;;;;;;11.50;2.75;;;;;;;-144.73;100.00;54436.44;4991691;28;20026;-72
2023/06/28 06:03:49;;;;;;;15.48;3.22;;;;;;;-144.73;100.00;54407.69;4988900;28;20029;-71
2023/06/28 06:06:15;;;;;;;18.17;4.03;;;;;;;-144.73;100.00;54391.28;5007450;28;20033;-72
2023/06/28 06:08:40;;;;;;;13.18;2.95;;;;;;;-144.73;100.00;54452.84;4992472;28;20101;-72
2023/06/28 06:11:06;;;;;;;15.20;3.75;;;;;;;-144.73;100.00;54436.44;4991302;28;20041;-71
2023/06/28 06:13:32;;;;;;;17.30;3.15;;;;;;;-144.73;100.00;54362.53;5008438;28;20049;-72
2023/06/28 06:15:57;;;;;;;14.95;3.50;;;;;;;-144.73;100.00;54424.13;4993496;28;20041;-71
2023/06/28 06:18:22;;;;;;;15.10;2.80;;;;;;;-144.73;100.00;54415.91;4984460;28;20056;-72
2023/06/28 06:20:48;;;;;;;17.55;3.00;;;;;;;-144.73;100.00;54407.69;5008934;28;20048;-71
2023/06/28 06:23:14;;;;;;;12.60;2.97;;;;;;;-144.73;100.00;54436.44;4988029;28;20065;-72
2023/06/28 06:25:39;;;;;;;11.60;2.75;;;;;;;-144.73;100.00;54420.00;4991819;28;20029;-72
2023/06/28 06:28:05;;;;;;;30.25;3.38;;;;;;;-144.73;100.00;54436.44;4988084;28;20081;-72
2023/06/28 06:30:30;;;;;;;16.67;2.85;;;;;;;-144.73;100.00;54428.22;4981161;28;20097;-72
2023/06/28 06:32:55;;;;;;;9.57;2.42;;;;;;;-144.73;100.00;54424.13;5008328;28;20034;-71
2023/06/28 06:35:21;;;;;;;23.17;4.22;;;;;;;-144.73;100.00;54424.13;5014767;28;20030;-71
2023/06/28 06:37:46;;;;;;;20.60;3.10;;;;;;;-144.73;100.00;54391.28;5019777;28;20105;-71
2023/06/28 06:40:12;;;;;;;18.90;3.20;;;;;;;-144.73;100.00;54391.28;5016685;28;20037;-71
2023/06/28 06:42:38;;;;;;;10.27;2.30;;;;;;;-144.73;100.00;54395.38;5005216;28;20050;-71
2023/06/28 06:45:05;;;;;;;16.52;2.83;;;;;;;-144.73;100.00;54395.38;4996243;28;20064;-71
2023/06/28 06:47:30;;;;;;;12.77;2.92;;;;;;;-144.73;100.00;54422.06;5013094;28;20030;-72
2023/06/28 06:49:56;;;;;;;13.48;2.67;;;;;;;-144.73;100.00;54399.50;5002239;28;20092;-71
2023/06/28 06:52:21;;;;;;;17.92;3.05;;;;;;;-144.73;100.00;54395.38;5018185;28;20030;-72
2023/06/28 06:54:47;;;;;;;12.38;2.20;;;;;;;-144.73;100.00;54407.69;5001333;28;20088;-71
2023/06/28 06:57:14;;;;;;;15.32;2.53;;;;;;;-144.73;100.00;54438.50;5008217;28;20120;-72
2023/06/28 06:59:40;;;;;;;17.75;3.40;;;;;;;-144.73;100.00;54399.50;5003518;28;20056;-71
2023/06/28 07:02:05;;;;;;;10.00;2.15;;;;;;;-144.73;100.00;54391.28;5019089;28;20041;-71
2023/06/28 07:04:31;;;;;;;12.38;2.75;;;;;;;-144.73;100.00;54366.66;5017299;28;20026;-71
2023/06/28 07:06:56;;;;;;;13.98;2.50;;;;;;;-144.73;100.00;54448.75;5014843;28;20026;-72
2023/06/28 07:09:22;;;;;;;13.25;2.75;;;;;;;-144.73;100.00;54399.50;5018494;28;20499;-72
2023/06/28 07:11:47;;;;;;;11.68;3.00;;;;;;;-144.73;100.00;54432.31;5018143;28;20065;-72
2023/06/28 07:14:12;;;;;;;17.35;2.65;;;;;;;-144.73;100.00;54407.69;5018330;28;20033;-72
2023/06/28 07:16:38;;;;;;;7.22;2.53;;;;;;;-144.73;100.00;54387.19;4997829;28;20038;-71
2023/06/28 07:19:05;;;;;;;16.98;2.83;;;;;;;-144.73;100.00;54424.13;5017936;28;20033;-72
2023/06/28 07:21:31;;;;;;;16.52;2.65;;;;;;;-144.73;100.00;54407.69;5002085;28;20026;-71
2023/06/28 07:23:56;;;;;;;12.38;2.78;;;;;;;-144.73;100.00;54387.19;5000763;28;20025;-75
2023/06/28 07:26:22;;;;;;;14.43;2.70;;;;;;;-144.73;100.00;54407.69;5018920;28;20044;-75
2023/06/28 07:28:49;;;;;;;8.65;2.33;;;;;;;-144.73;100.00;54381.00;5000254;28;20026;-76
2023/06/28 07:31:14;;;;;;;11.85;2.08;;;;;;;-144.73;100.00;54387.19;4986146;28;20033;-74
2023/06/28 07:33:40;;;;;;;11.40;2.40;;;;;;;-144.73;100.00;54370.75;4988984;28;20084;-75
2023/06/28 07:36:05;;;;;;;17.27;2.80;;;;;;;-144.73;100.00;54395.38;4990972;28;20034;-75
2023/06/28 07:38:31;;;;;;;11.18;2.28;;;;;;;-144.73;100.00;54383.06;4988589;28;20025;-75
2023/06/28 07:40:56;;;;;;;8.52;2.95;;;;;;;-144.73;95.62;54378.97;4992834;28;20065;-75
2023/06/28 07:43:21;;;;;;;12.88;2.63;;;;;;;-144.73;96.91;54415.91;4994050;28;20057;-75
2023/06/28 07:45:47;;;;;;;8.93;2.55;;;;;;;-144.73;93.78;54337.91;4991430;28;20031;-75
2023/06/28 07:48:12;;;;;;;9.43;2.53;;;;;;;-144.73;92.75;54409.75;4989042;28;20092;-74
2023/06/28 07:50:38;;;;;;;9.65;2.55;;;;;;;-144.73;92.29;54411.81;5008803;28;20044;-75
2023/06/28 07:53:04;;;;;;;8.13;2.28;;;;;;;-144.73;92.84;54366.66;5005296;28;20035;-74
2023/06/28 07:55:30;;;;;;;7.40;1.95;;;;;;;-144.73;92.24;54378.97;4994114;28;20034;-74
2023/06/28 07:57:58;;;;;;;17.98;2.95;;;;;;;-144.73;90.50;54360.50;5012132;28;20060;-74
2023/06/28 08:00:25;;;;;;;9.50;2.20;;;;;;;-144.73;91.18;54407.69;5011448;28;20030;-75
2023/06/28 08:02:50;;;;;;;7.80;1.90;;;;;;;-144.73;87.90;54337.91;4994036;28;20026;-75
2023/06/28 08:05:15;;;;;;;16.08;2.92;;;;;;;-144.73;84.64;54378.97;4993747;28;20033;-75
2023/06/28 08:07:41;;;;;;;10.82;2.25;;;;;;;-144.73;82.43;54358.44;4994332;28;20022;-75
2023/06/28 08:10:07;;;;;;;11.85;2.03;;;;;;;-144.73;79.23;54337.91;5011180;28;20041;-75
2023/06/28 08:12:32;;;;;;;11.63;2.70;;;;;;;-144.73;78.16;54376.91;4989442;28;20026;-75
2023/06/28 08:14:58;;;;;;;17.80;2.13;;;;;;;-144.73;80.05;54350.22;5007536;28;20143;-74
2023/06/28 08:17:23;;;;;;;11.38;2.33;;;;;;;-144.73;81.15;54337.91;4994502;28;20018;-75
2023/06/28 08:19:49;;;;;;;15.95;2.80;;;;;;;-144.73;79.46;54358.44;5007896;28;20530;-75
2023/06/28 08:22:15;;;;;;;9.10;2.08;;;;;;;-144.73;82.65;54374.84;4993665;28;20033;-75
2023/06/28 08:24:40;;;;;;;13.95;2.90;;;;;;;-144.73;83.00;54337.91;4993739;28;20061;-75
2023/06/28 08:27:06;;;;;;;10.50;2.63;;;;;;;-144.73;90.07;54391.28;4993383;28;20045;-75
2023/06/28 08:29:32;;;;;;;20.20;3.05;;;;;;;-144.73;93.34;54383.06;4993211;28;20022;-75
2023/06/28 08:31:57;;;;;;;8.60;2.40;;;;;;;-144.73;91.08;54362.53;4993609;28;20061;-75
2023/06/28 08:34:22;;;;;;;14.07;3.15;;;;;;;-144.73;91.70;54383.06;4993595;28;20026;-75
2023/06/28 08:36:48;;;;;;;15.32;2.70;;;;;;;-144.73;88.70;54331.75;4994755;28;20463;-73
2023/06/28 08:39:13;;;;;;;9.43;2.60;;;;;;;-144.73;83.90;54358.44;4993110;28;20048;-75
2023/06/28 08:41:40;;;;;;;7.18;2.30;;;;;;;-144.73;83.18;54346.13;4992788;28;20030;-73
2023/06/28 08:44:09;;;;;;;7.43;2.40;;;;;;;-144.73;79.84;54339.97;5009766;28;20088;-75
2023/06/28 08:46:34;;;;;;;15.63;2.97;;;;;;;-144.73;79.20;54342.03;4989230;28;20042;-76
2023/06/28 08:49:00;;;;;;;9.73;2.50;;;;;;;-144.73;79.49;54378.97;4993051;28;20113;-75
2023/06/28 08:51:26;;;;;;;12.70;2.40;;;;;;;-144.73;78.05;54354.34;4992724;28;20042;-74
2023/06/28 08:53:54;;;;;;;12.30;2.65;;;;;;;-144.73;78.82;54313.28;5010164;28;20034;-74
2023/06/28 08:56:19;;;;;;;12.05;2.53;;;;;;;-144.73;78.73;54352.28;4991993;28;20042;-74
2023/06/28 08:58:48;;;;;;;14.75;2.22;;;;;;;-144.73;73.58;54370.75;4996245;28;20037;-74
2023/06/28 09:01:14;;;;;;;4.82;2.40;;;;;;;-144.73;69.14;54366.66;5010087;28;20034;-74
2023/06/28 09:03:42;;;;;;;13.40;2.47;;;;;;;-144.73;75.34;54391.28;5007065;28;20035;-74
2023/06/28 09:06:08;;;;;;;12.75;2.58;;;;;;;-144.73;81.50;54391.28;5002288;28;20105;-76
2023/06/28 09:08:34;;;;;;;16.75;3.45;;;;;;;-144.73;84.33;54342.03;5009750;28;20036;-73
2023/06/28 09:11:01;;;;;;;11.30;2.72;;;;;;;-144.73;82.04;54333.81;5010281;28;20080;-74
2023/06/28 09:13:27;;;;;;;12.15;3.15;;;;;;;-144.73;77.37;54350.22;4995982;28;20084;-74
2023/06/28 09:15:54;;;;;;;11.25;2.38;;;;;;;-144.73;79.38;54354.34;4992828;28;20040;-74
2023/06/28 09:18:20;;;;;;;15.05;3.30;;;;;;;-144.73;75.00;54333.81;5010383;28;20052;-74
2023/06/28 09:20:53;;;;;;;10.00;2.88;;;;;;;-144.73;73.26;54366.66;4992454;28;20463;-74
2023/06/28 09:23:26;;;;;;;10.60;2.88;;;;;;;-144.73;70.26;54350.22;5008682;28;20513;-74
2023/06/28 09:25:53;;;;;;;9.48;3.00;;;;;;;-144.73;70.89;54300.97;4991898;28;20033;-74
2023/06/28 09:28:21;;;;;;;15.80;2.83;;;;;;;-144.73;66.09;54307.13;4993491;28;20021;-74
2023/06/28 09:30:54;;;;;;;10.27;3.33;;;;;;;-144.73;67.08;54346.13;4996588;28;20034;-74
2023/06/28 09:33:20;;;;;;;13.18;2.75;;;;;;;-144.73;69.75;54325.59;5008039;28;20049;-74
2023/06/28 09:35:46;;;;;;;13.68;2.47;;;;;;;-144.73;67.65;54317.38;5001110;28;20084;-74
2023/06/28 09:38:11;;;;;;;13.93;2.92;;;;;;;-144.73;71.04;54366.66;5009705;28;20038;-74
2023/06/28 09:40:37;;;;;;;13.82;2.47;;;;;;;-144.73;73.64;54313.28;5009101;28;20033;-74
2023/06/28 09:43:03;;;;;;;11.07;3.03;;;;;;;-144.73;73.89;54317.38;5009522;28;20017;-74
2023/06/28 09:45:31;;;;;;;11.98;3.22;;;;;;;-144.73;73.32;54350.22;5004034;28;20029;-74
2023/06/28 09:47:59;;;;;;;10.32;2.78;;;;;;;-144.73;70.26;54298.91;5005897;28;20075;-74
2023/06/28 09:50:37;;;;;;;16.00;2.35;;;;;;;-144.73;66.41;54313.28;5022402;28;20053;-74
2023/06/28 09:53:11;;;;;;;9.60;2.42;;;;;;;-144.73;66.07;54325.59;5011699;28;20049;-74
2023/06/28 09:55:38;;;;;;;13.18;2.88;;;;;;;-144.73;63.41;54321.50;5008699;28;20026;-74
2023/06/28 09:58:05;;;;;;;18.13;2.90;;;;;;;-144.73;68.44;54333.81;5008807;28;20097;-74
2023/06/28 10:00:31;;;;;;;9.98;2.70;;;;;;;-144.73;72.91;54337.91;5008840;28;20030;-76
2023/06/28 10:02:58;;;;;;;11.65;3.08;;;;;;;-144.73;79.18;54358.44;5009008;28;20021;-76
2023/06/28 10:05:25;;;;;;;14.85;3.63;;;;;;;-144.73;78.11;54319.44;5009047;28;20042;-74
2023/06/28 10:07:52;;;;;;;13.73;2.92;;;;;;;-144.73;71.88;54317.38;5013559;28;20034;-75
2023/06/28 10:10:18;;;;;;;13.85;2.42;;;;;;;-144.73;67.66;54317.38;5007739;28;20499;-75
2023/06/28 10:12:45;;;;;;;10.93;3.45;;;;;;;-144.73;66.66;54325.59;5008036;28;20028;-75
2023/06/28 10:15:13;;;;;;;12.35;2.53;;;;;;;-144.73;66.15;54311.22;5008575;28;20033;-74
2023/06/28 10:17:40;;;;;;;15.63;3.30;;;;;;;-144.73;66.29;54313.28;5008935;28;20041;-74
2023/06/28 10:20:07;;;;;;;12.80;2.80;;;;;;;-144.73;68.51;54321.50;5002098;28;20026;-74
2023/06/28 10:22:33;;;;;;;10.88;2.85;;;;;;;-144.73;69.76;54346.13;5005292;28;20017;-74
2023/06/28 10:25:01;;;;;;;11.30;2.85;;;;;;;-144.73;73.48;54321.50;5022374;28;20041;-74
2023/06/28 10:27:27;;;;;;;10.15;2.45;;;;;;;-144.73;74.31;54319.44;5024845;28;20028;-75
2023/06/28 10:29:54;;;;;;;6.00;2.47;;;;;;;-144.73;74.57;54358.44;5019347;28;20042;-75
2023/06/28 10:32:20;;;;;;;7.95;2.95;;;;;;;-144.73;73.09;54370.75;5012514;28;20071;-74
2023/06/28 10:34:47;;;;;;;11.38;2.88;;;;;;;-144.73;69.65;54366.66;5006941;28;20081;-75
2023/06/28 10:37:12;;;;;;;7.28;2.33;;;;;;;-144.73;67.66;54333.81;5010927;28;20040;-75
2023/06/28 10:39:38;;;;;;;11.52;2.80;;;;;;;-144.73;66.63;54378.97;5002169;28;20026;-75
2023/06/28 10:42:04;;;;;;;8.98;2.78;;;;;;;-144.73;67.21;54391.28;5011148;28;20368;-75
2023/06/28 10:44:30;;;;;;;11.00;2.63;;;;;;;-144.73;68.47;54366.66;5008345;28;20029;-75
2023/06/28 10:47:13;;;;;;;13.93;3.25;;;;;;;-144.73;72.02;54325.59;5012756;28;20069;-74
2023/06/28 10:49:41;;;;;;;8.45;2.55;;;;;;;-144.73;71.88;54268.13;5008682;28;20156;-75
2023/06/28 10:52:16;;;;;;;20.25;3.13;;;;;;;-144.73;69.52;54300.97;5012362;28;20076;-75
2023/06/28 10:54:42;;;;;;;10.85;2.83;;;;;;;-144.73;68.64;54395.38;5013239;28;20033;-75
2023/06/28 10:57:10;;;;;;;9.88;2.50;;;;;;;-144.73;62.85;54298.91;5012410;28;20030;-75
2023/06/28 10:59:36;;;;;;;10.13;2.75;;;;;;;-144.73;60.37;54284.56;5013585;28;20022;-75